Strother, Missouri
Current Conditions -  °F | °C
As of 11:55 AM on Friday 21 Nov 2014 (Local Time) from KIRK Reporting Station
Clear Clear  
Wind Chill: 27°   Ceiling: Unl
Heat Index: 35°   Visibility: 10mi
Dew Point: 18°   Wind: 12mph
Humidity: 50%   Direction: 130°SE
Pressure: 30.28"   Gusts: NA
Location:  39.5207°N, 92.0162°W
Report Text: KIRK 211755Z AUTO 13010KT 10SM CLR 02/M08 A3028 RMK AO2 SLP270 T00171078 10022 21083 58019
Loading
Personal Weather Stations






























Interactive Weather Map New forecast layout! Learn more

10-Day Weather Forecast

Advertisements
Track Severe Weather on mobile